Irondale, Washington
Current Conditions -  °F | °C
As of 12:56 AM on Saturday 29 Nov 2014 (Local Time) from KNUW Reporting Station
Broken Clouds Broken Clouds  
Wind Chill: 35°   Ceiling: 5500
Heat Index: 42°   Visibility: 10mi
Dew Point: 26°   Wind: 14mph
Humidity: 53%   Direction: 330°NNW
Pressure: 29.54"   Gusts: NA
Location:  48.0288°N, 122.77°W
Report Text: KNUW 290856Z 33012KT 10SM FEW010 SCT020 BKN055 06/M03 A2954 RMK AO2 SLP006 60000 T00561033 51016 $
Loading
Personal Weather Stations






























Interactive Weather Map New forecast layout! Learn more

10-Day Weather Forecast

Advertisements
Track Severe Weather on mobile